Time;durP1;ratioP1;P1;durP2;ratioP2;P2;SDS_P1;SDS_P2;PMS_P1;PMS_P2;Temp;Humidity;BMP_temperature;BMP_pressure;BME280_temperature;BME280_humidity;BME280_pressure;Samples;Min_cycle;Max_cycle;Signal;HPM_P1;HPM_P2
2023/02/01 00:01:55;;;;;;;28.48;7.57;;;6.70;99.90;;;;;;5053099;28;20575;-74
2023/02/01 00:04:21;;;;;;;19.55;4.47;;;6.70;99.90;;;;;;5054510;28;20124;-74
2023/02/01 00:06:46;;;;;;;24.10;5.43;;;6.70;99.90;;;;;;5036841;28;20139;-74
2023/02/01 00:09:12;;;;;;;29.40;5.97;;;6.80;99.90;;;;;;5036414;28;20033;-73
2023/02/01 00:11:38;;;;;;;28.85;5.55;;;6.80;99.90;;;;;;5053231;28;20044;-74
2023/02/01 00:14:04;;;;;;;25.65;6.13;;;6.70;99.90;;;;;;5054290;28;20530;-73
2023/02/01 00:16:30;;;;;;;28.92;5.53;;;6.70;99.90;;;;;;5054357;28;20079;-74
2023/02/01 00:19:05;;;;;;;28.00;5.35;;;6.70;99.90;;;;;;5052715;28;20098;-74
2023/02/01 00:21:31;;;;;;;27.45;5.68;;;6.70;99.90;;;;;;5052677;28;20108;-74
2023/02/01 00:23:56;;;;;;;25.48;6.07;;;6.70;99.90;;;;;;5052885;28;20045;-74
2023/02/01 00:26:30;;;;;;;22.40;5.90;;;6.70;99.90;;;;;;5052876;28;20116;-74
2023/02/01 00:28:55;;;;;;;27.95;5.82;;;6.70;99.90;;;;;;5052792;28;20127;-74
2023/02/01 00:31:21;;;;;;;25.23;4.93;;;6.70;99.90;;;;;;5053943;28;20115;-74
2023/02/01 00:33:47;;;;;;;16.52;4.65;;;6.80;99.90;;;;;;5052672;28;20434;-73
2023/02/01 00:36:13;;;;;;;21.73;4.75;;;6.80;99.90;;;;;;5054157;28;20033;-73
2023/02/01 00:38:39;;;;;;;18.85;4.80;;;6.80;99.90;;;;;;5053774;28;20437;-74
2023/02/01 00:41:07;;;;;;;26.88;5.85;;;6.80;99.90;;;;;;5053886;28;20037;-73
2023/02/01 00:43:33;;;;;;;21.38;4.78;;;6.70;99.90;;;;;;5052615;28;20047;-73
2023/02/01 00:45:59;;;;;;;30.73;5.40;;;6.70;99.90;;;;;;5053572;28;20056;-74
2023/02/01 00:48:25;;;;;;;21.73;5.00;;;6.80;99.90;;;;;;5053364;28;20029;-73
2023/02/01 00:50:51;;;;;;;19.75;4.43;;;6.70;99.90;;;;;;5051085;28;20540;-74
2023/02/01 00:53:16;;;;;;;22.85;4.85;;;6.80;99.90;;;;;;5052658;28;20076;-74
2023/02/01 00:55:46;;;;;;;20.75;5.65;;;6.80;99.90;;;;;;5052530;28;20044;-74
2023/02/01 00:58:12;;;;;;;26.40;4.82;;;6.80;99.90;;;;;;5053229;28;20119;-74
2023/02/01 01:00:37;;;;;;;23.92;4.43;;;6.90;99.90;;;;;;5052112;28;20099;-73
2023/02/01 01:03:17;;;;;;;20.85;4.72;;;6.90;99.90;;;;;;5053373;28;20060;-73
2023/02/01 01:05:44;;;;;;;29.95;5.00;;;6.80;99.90;;;;;;5053498;28;20167;-74
2023/02/01 01:08:09;;;;;;;16.52;4.65;;;6.90;99.90;;;;;;5052963;28;20448;-74
2023/02/01 01:10:35;;;;;;;18.55;5.55;;;6.80;99.90;;;;;;5051949;28;20112;-74
2023/02/01 01:13:00;;;;;;;21.23;4.47;;;6.90;99.90;;;;;;5051952;28;20436;-74
2023/02/01 01:15:26;;;;;;;25.10;4.93;;;6.90;99.90;;;;;;5053073;28;20041;-74
2023/02/01 01:17:51;;;;;;;16.95;4.32;;;6.80;99.90;;;;;;5051599;28;20405;-74
2023/02/01 01:20:17;;;;;;;28.10;6.25;;;6.90;99.90;;;;;;5051603;28;20041;-74
2023/02/01 01:22:43;;;;;;;31.33;6.07;;;6.90;99.90;;;;;;5051791;28;20041;-74
2023/02/01 01:25:08;;;;;;;21.42;4.55;;;6.80;99.90;;;;;;5051756;28;20043;-74
2023/02/01 01:27:34;;;;;;;17.83;4.35;;;6.80;99.90;;;;;;5052739;28;20151;-74
2023/02/01 01:29:59;;;;;;;18.90;3.97;;;6.80;99.90;;;;;;5052777;28;20166;-73
2023/02/01 01:32:25;;;;;;;22.27;4.35;;;6.90;99.90;;;;;;5051794;28;20566;-74
2023/02/01 01:34:51;;;;;;;21.55;4.82;;;6.90;99.90;;;;;;5034925;28;20128;-74
2023/02/01 01:37:16;;;;;;;32.35;5.93;;;6.90;99.90;;;;;;5051216;28;20049;-74
2023/02/01 01:39:42;;;;;;;24.27;5.55;;;6.90;99.90;;;;;;5051491;28;20044;-74
2023/02/01 01:42:12;;;;;;;22.70;4.95;;;6.90;99.90;;;;;;5052578;28;20037;-74
2023/02/01 01:45:23;;;;;;;17.90;5.25;;;6.90;99.90;;;;;;5052553;28;20128;-74
2023/02/01 01:47:57;;;;;;;22.55;5.82;;;6.90;99.90;;;;;;5050064;28;20051;-73
2023/02/01 01:50:33;;;;;;;26.02;6.15;;;6.80;99.90;;;;;;5052471;28;20510;-73
2023/02/01 01:53:02;;;;;;;17.88;4.95;;;6.90;99.90;;;;;;5051164;28;20040;-73
2023/02/01 01:55:31;;;;;;;24.80;5.90;;;6.90;99.90;;;;;;5034567;28;20060;-74
2023/02/01 01:58:05;;;;;;;28.48;5.45;;;6.80;99.90;;;;;;5050722;28;20049;-73
2023/02/01 02:00:32;;;;;;;22.48;5.32;;;6.80;99.90;;;;;;5050977;28;20037;-74
2023/02/01 02:03:11;;;;;;;25.45;5.45;;;6.80;99.90;;;;;;5051846;28;20037;-74
2023/02/01 02:05:37;;;;;;;23.63;5.55;;;6.70;99.90;;;;;;5052476;28;20052;-74
2023/02/01 02:08:03;;;;;;;29.02;5.57;;;6.70;99.90;;;;;;5050676;28;20033;-74
2023/02/01 02:11:14;;;;;;;26.83;4.85;;;6.60;99.90;;;;;;5050882;28;20406;-74
2023/02/01 02:13:16;;;;;;;22.15;4.60;;;6.60;99.90;;;;;;5047929;28;20649;-74
2023/02/01 02:15:48;;;;;;;26.80;5.70;;;6.50;99.90;;;;;;5034146;28;20033;-74
2023/02/01 02:18:32;;;;;;;17.17;4.53;;;6.40;99.90;;;;;;5051793;28;20502;-74
2023/02/01 02:21:30;;;;;;;18.85;4.57;;;6.50;99.90;;;;;;5050649;28;20072;-74
2023/02/01 02:24:24;;;;;;;18.67;4.85;;;6.50;99.90;;;;;;5039757;28;20080;-74
2023/02/01 02:27:24;;;;;;;32.83;5.57;;;6.30;99.90;;;;;;5050406;28;20082;-74
2023/02/01 02:30:26;;;;;;;25.83;5.50;;;6.30;99.90;;;;;;5051915;28;20041;-73
2023/02/01 02:33:12;;;;;;;27.17;5.65;;;6.40;99.90;;;;;;5051839;28;20045;-74
2023/02/01 02:35:37;;;;;;;23.80;5.43;;;6.30;99.90;;;;;;5051834;28;20041;-74
2023/02/01 02:38:14;;;;;;;25.60;6.20;;;6.40;99.90;;;;;;5050456;28;20387;-73
2023/02/01 02:47:56;;;;;;;31.00;6.13;;;6.40;99.90;;;;;;5050071;28;20104;-74
2023/02/01 03:04:40;;;;;;;23.80;5.38;;;6.30;99.90;;;;;;5051627;28;20052;-74
2023/02/01 03:07:30;;;;;;;27.08;7.47;;;6.30;99.90;;;;;;5051309;28;20037;-74
2023/02/01 03:09:57;;;;;;;27.10;4.80;;;6.30;99.90;;;;;;5051422;28;20085;-74
2023/02/01 03:15:12;;;;;;;30.13;5.40;;;6.30;99.90;;;;;;5053290;28;20524;-74
2023/02/01 03:17:41;;;;;;;25.15;5.10;;;6.50;99.90;;;;;;5055206;28;20037;-74
2023/02/01 03:20:10;;;;;;;28.48;5.68;;;6.50;99.90;;;;;;5054392;28;20405;-74
2023/02/01 03:22:38;;;;;;;21.23;5.18;;;6.40;99.90;;;;;;5053993;28;20037;-74
2023/02/01 03:25:15;;;;;;;20.35;4.57;;;6.40;99.90;;;;;;5054067;28;20045;-74
2023/02/01 03:27:57;;;;;;;25.08;5.50;;;6.60;99.90;;;;;;5053690;28;20087;-74
2023/02/01 03:30:42;;;;;;;20.73;5.25;;;6.50;99.90;;;;;;5055216;28;20033;-74
2023/02/01 03:33:22;;;;;;;18.73;5.15;;;6.40;99.90;;;;;;5054160;28;20398;-74
2023/02/01 03:36:00;;;;;;;21.10;5.82;;;6.50;99.90;;;;;;5038839;28;20040;-74
2023/02/01 03:38:40;;;;;;;18.70;4.57;;;6.50;99.90;;;;;;5054819;28;20045;-74
2023/02/01 03:41:42;;;;;;;22.75;4.93;;;6.60;99.90;;;;;;5054885;28;20045;-73
2023/02/01 03:44:29;;;;;;;23.35;5.20;;;6.60;99.90;;;;;;5022592;28;20407;-73
2023/02/01 03:47:21;;;;;;;20.45;4.72;;;6.60;99.90;;;;;;5053513;28;20072;-74
2023/02/01 03:49:50;;;;;;;22.45;4.68;;;6.60;99.90;;;;;;5053954;28;20060;-74
2023/02/01 03:52:44;;;;;;;19.25;4.70;;;6.60;99.90;;;;;;5053523;28;20056;-73
2023/02/01 03:55:12;;;;;;;22.27;4.45;;;6.60;99.90;;;;;;5036855;28;20127;-74
2023/02/01 03:57:44;;;;;;;20.75;5.15;;;6.60;99.90;;;;;;5036462;28;20045;-74
2023/02/01 04:00:16;;;;;;;22.63;5.45;;;6.60;99.90;;;;;;5054850;28;20069;-74
2023/02/01 04:02:42;;;;;;;17.50;4.50;;;6.60;99.90;;;;;;5053488;28;20584;-74
2023/02/01 04:05:08;;;;;;;16.15;5.07;;;6.60;99.90;;;;;;5036900;28;20056;-74
2023/02/01 04:07:33;;;;;;;25.98;4.88;;;6.70;99.90;;;;;;5053181;28;20048;-74
2023/02/01 04:09:59;;;;;;;23.35;6.63;;;6.50;99.90;;;;;;5053129;28;20028;-74
2023/02/01 04:12:25;;;;;;;29.20;6.07;;;6.60;99.90;;;;;;5054187;28;20087;-74
2023/02/01 04:14:50;;;;;;;22.92;5.18;;;6.40;99.90;;;;;;5053203;28;20091;-74
2023/02/01 04:17:16;;;;;;;19.98;4.78;;;6.40;99.90;;;;;;5054184;28;20036;-74
2023/02/01 04:19:41;;;;;;;28.20;4.90;;;6.40;99.90;;;;;;5054280;28;20091;-74
2023/02/01 04:22:07;;;;;;;31.65;6.40;;;6.50;99.90;;;;;;5078965;22;20047;-68
2023/02/01 04:24:32;;;;;;;16.52;5.53;;;6.40;99.90;;;;;;5073585;28;20040;-68
2023/02/01 04:26:58;;;;;;;23.95;5.00;;;6.50;99.90;;;;;;5073553;28;20044;-68
2023/02/01 04:29:23;;;;;;;29.58;5.80;;;6.50;99.90;;;;;;5072634;28;20123;-69
2023/02/01 04:31:49;;;;;;;27.65;5.28;;;6.60;99.90;;;;;;5071248;28;20480;-68
2023/02/01 04:34:15;;;;;;;25.63;5.43;;;6.50;99.90;;;;;;5073911;28;20043;-70
2023/02/01 04:36:40;;;;;;;26.58;6.63;;;6.40;99.90;;;;;;5073851;28;20040;-68
2023/02/01 04:39:06;;;;;;;26.83;6.47;;;6.50;99.90;;;;;;5073514;28;20040;-68
2023/02/01 04:41:31;;;;;;;24.00;5.75;;;6.50;99.90;;;;;;5061198;28;20059;-69
2023/02/01 04:43:57;;;;;;;23.02;5.00;;;6.50;99.90;;;;;;5052378;28;20486;-68
2023/02/01 04:46:23;;;;;;;26.15;5.03;;;6.50;99.90;;;;;;5053752;28;20553;-68
2023/02/01 04:48:48;;;;;;;20.02;4.90;;;6.60;99.90;;;;;;5053469;28;20035;-68
2023/02/01 04:51:14;;;;;;;20.50;4.97;;;6.60;99.90;;;;;;5053387;28;20548;-68
2023/02/01 04:53:40;;;;;;;23.90;5.13;;;6.50;99.90;;;;;;5053465;28;20076;-68
2023/02/01 04:56:06;;;;;;;20.17;4.90;;;6.50;99.90;;;;;;5052126;28;20072;-68
2023/02/01 04:58:32;;;;;;;15.55;4.57;;;6.60;99.90;;;;;;5053345;28;20067;-69
2023/02/01 05:00:57;;;;;;;23.73;5.25;;;6.60;99.90;;;;;;5053414;28;20049;-68
2023/02/01 05:03:23;;;;;;;17.10;5.40;;;6.60;99.90;;;;;;5051975;28;20453;-68
2023/02/01 05:05:49;;;;;;;26.60;6.35;;;6.70;99.90;;;;;;5053318;28;20112;-68
2023/02/01 05:08:14;;;;;;;27.80;5.57;;;6.70;99.90;;;;;;5053041;28;20033;-68
2023/02/01 05:10:40;;;;;;;20.85;5.43;;;6.60;99.90;;;;;;5052846;28;20095;-68
2023/02/01 05:15:52;;;;;;;17.63;7.07;;;6.70;99.90;;;;;;5053212;28;20083;-68
2023/02/01 05:18:18;;;;;;;21.60;5.57;;;6.60;99.90;;;;;;5052764;28;20123;-68
2023/02/01 05:20:44;;;;;;;26.63;5.10;;;6.70;99.90;;;;;;5052822;28;20120;-68
2023/02/01 05:23:09;;;;;;;27.20;5.47;;;6.70;99.90;;;;;;5052666;28;20115;-68
2023/02/01 05:25:35;;;;;;;28.27;6.15;;;6.70;99.90;;;;;;5053080;28;20071;-68
2023/02/01 05:28:00;;;;;;;19.77;5.47;;;6.60;99.90;;;;;;5052651;28;20040;-68
2023/02/01 05:30:26;;;;;;;27.00;6.55;;;6.70;99.90;;;;;;5052840;28;20041;-68
2023/02/01 05:32:52;;;;;;;27.48;5.60;;;6.60;99.90;;;;;;5052719;28;20041;-68
2023/02/01 05:35:19;;;;;;;33.75;5.80;;;6.60;99.90;;;;;;5052647;28;20491;-68
2023/02/01 05:37:44;;;;;;;31.17;6.03;;;6.60;99.90;;;;;;5050176;28;20074;-68
2023/02/01 05:40:10;;;;;;;19.38;5.25;;;6.60;99.90;;;;;;5052702;28;20037;-68
2023/02/01 05:42:36;;;;;;;26.73;6.45;;;6.60;99.90;;;;;;5052311;28;20453;-68
2023/02/01 05:45:01;;;;;;;20.77;5.35;;;6.80;99.90;;;;;;5052603;28;20052;-68
2023/02/01 05:47:27;;;;;;;21.58;4.90;;;6.70;99.90;;;;;;5052272;28;20048;-68
2023/02/01 05:49:52;;;;;;;15.43;4.45;;;6.70;99.90;;;;;;5052088;28;20033;-68
2023/02/01 05:52:19;;;;;;;22.08;5.43;;;6.60;99.90;;;;;;5051962;28;20124;-68
2023/02/01 05:54:46;;;;;;;22.95;6.22;;;6.70;99.90;;;;;;5050718;28;20115;-68
2023/02/01 05:57:13;;;;;;;25.55;5.30;;;6.80;99.90;;;;;;5051864;28;20045;-68
2023/02/01 05:59:40;;;;;;;20.38;5.47;;;6.80;99.90;;;;;;5052048;28;20111;-68
2023/02/01 06:02:07;;;;;;;26.08;4.63;;;6.90;99.90;;;;;;5050393;28;20047;-68
2023/02/01 06:04:33;;;;;;;24.90;5.45;;;6.80;99.90;;;;;;5050483;28;20040;-68
2023/02/01 06:06:58;;;;;;;24.77;4.18;;;6.80;99.90;;;;;;5051387;28;20037;-68
2023/02/01 06:09:24;;;;;;;20.35;5.78;;;6.80;99.90;;;;;;5051902;28;20041;-68
2023/02/01 06:11:49;;;;;;;19.73;4.47;;;6.90;99.90;;;;;;5051450;28;20033;-68
2023/02/01 06:14:15;;;;;;;30.85;5.22;;;6.90;99.90;;;;;;5051694;28;20070;-68
2023/02/01 06:16:40;;;;;;;18.08;4.80;;;6.90;99.90;;;;;;5051568;28;20537;-68
2023/02/01 06:19:06;;;;;;;15.98;4.35;;;6.80;99.90;;;;;;5051307;28;20044;-68
2023/02/01 06:21:33;;;;;;;21.35;4.40;;;6.70;99.90;;;;;;5051042;28;20049;-68
2023/02/01 06:23:58;;;;;;;25.63;5.90;;;6.70;99.90;;;;;;5050221;28;20350;-68
2023/02/01 06:26:25;;;;;;;23.30;5.05;;;6.70;99.90;;;;;;5051502;28;20037;-68
2023/02/01 06:28:51;;;;;;;19.83;4.47;;;6.80;99.90;;;;;;5051271;28;20076;-68
2023/02/01 06:31:16;;;;;;;19.00;4.78;;;6.80;99.90;;;;;;5051394;28;20098;-68
2023/02/01 06:33:42;;;;;;;21.25;5.15;;;6.80;99.90;;;;;;5050220;28;20036;-68
2023/02/01 06:36:10;;;;;;;25.67;5.65;;;6.70;99.90;;;;;;5051265;28;20098;-68
2023/02/01 06:38:36;;;;;;;21.45;5.97;;;6.70;99.90;;;;;;5051171;28;20134;-68
2023/02/01 06:41:03;;;;;;;23.63;5.57;;;6.70;99.90;;;;;;5050074;28;20069;-68
2023/02/01 06:43:28;;;;;;;21.23;5.10;;;6.70;99.90;;;;;;5049946;28;20041;-68
2023/02/01 06:45:59;;;;;;;19.30;4.80;;;6.80;99.90;;;;;;5051254;28;20087;-68
2023/02/01 06:48:24;;;;;;;21.60;4.57;;;6.80;99.90;;;;;;5050811;28;20048;-68
2023/02/01 06:50:50;;;;;;;21.90;5.65;;;6.80;99.90;;;;;;5050947;28;20106;-68
2023/02/01 06:53:15;;;;;;;28.55;5.55;;;6.80;99.90;;;;;;5051289;28;20037;-68
2023/02/01 06:55:41;;;;;;;25.67;5.30;;;6.60;99.90;;;;;;5051263;28;20115;-69
2023/02/01 06:58:07;;;;;;;27.58;5.32;;;6.70;99.90;;;;;;5050838;28;20044;-69
2023/02/01 07:00:32;;;;;;;19.58;6.53;;;6.70;99.90;;;;;;5051005;28;20033;-69
2023/02/01 07:02:59;;;;;;;22.77;4.55;;;6.70;99.90;;;;;;5050960;28;20041;-68
2023/02/01 07:05:25;;;;;;;23.17;6.50;;;6.90;99.90;;;;;;5050899;28;20052;-68
2023/02/01 07:07:50;;;;;;;35.97;6.60;;;6.80;99.90;;;;;;5049299;28;20045;-69
2023/02/01 07:10:16;;;;;;;21.75;5.75;;;6.90;99.90;;;;;;5051068;28;20041;-68
2023/02/01 07:12:42;;;;;;;21.30;4.35;;;6.90;99.90;;;;;;5049750;28;20072;-69
2023/02/01 07:15:07;;;;;;;23.00;5.70;;;6.80;99.90;;;;;;5050913;28;20380;-69
2023/02/01 07:17:33;;;;;;;18.45;3.83;;;6.90;99.90;;;;;;5050651;28;20041;-69
2023/02/01 07:19:59;;;;;;;26.35;4.18;;;6.80;99.90;;;;;;5050749;28;20036;-68
2023/02/01 07:22:26;;;;;;;22.85;4.80;;;6.80;99.90;;;;;;5050644;28;20090;-69
2023/02/01 07:24:51;;;;;;;23.83;5.03;;;6.90;99.90;;;;;;5050717;28;20120;-69
2023/02/01 07:27:17;;;;;;;18.17;4.75;;;6.90;99.90;;;;;;5050553;28;20041;-69
2023/02/01 07:29:42;;;;;;;20.05;5.10;;;6.90;99.90;;;;;;5050835;28;20402;-69
2023/02/01 07:32:08;;;;;;;23.45;5.15;;;6.90;99.90;;;;;;5050779;28;20450;-70
2023/02/01 07:34:34;;;;;;;21.77;5.03;;;6.80;99.90;;;;;;5051503;28;20041;-69
2023/02/01 07:37:00;;;;;;;20.20;4.28;;;6.90;99.90;;;;;;5070493;28;20045;-68
2023/02/01 07:39:28;;;;;;;20.20;4.88;;;7.00;99.90;;;;;;5070857;28;20066;-68
2023/02/01 07:41:53;;;;;;;24.85;5.57;;;7.00;99.90;;;;;;5070546;28;20041;-69
2023/02/01 07:44:22;;;;;;;23.58;4.57;;;7.00;99.90;;;;;;5070697;28;20052;-68
2023/02/01 07:46:48;;;;;;;23.23;5.03;;;7.00;99.90;;;;;;5069316;28;20040;-68
2023/02/01 07:49:13;;;;;;;18.55;4.25;;;6.90;99.90;;;;;;5070735;28;20047;-68
2023/02/01 07:51:39;;;;;;;20.00;6.10;;;6.90;99.90;;;;;;5070530;28;20410;-68
2023/02/01 07:54:04;;;;;;;22.33;5.15;;;7.00;99.90;;;;;;5070835;28;20041;-68
2023/02/01 07:56:30;;;;;;;24.85;6.95;;;7.00;99.90;;;;;;5070735;28;20048;-68
2023/02/01 07:58:56;;;;;;;21.85;5.70;;;7.00;99.90;;;;;;5070465;28;20047;-68
2023/02/01 08:01:24;;;;;;;27.05;5.93;;;6.90;99.90;;;;;;5073715;28;20028;-68
2023/02/01 08:03:54;;;;;;;29.52;5.65;;;7.00;99.90;;;;;;5073043;28;20187;-68
2023/02/01 08:06:20;;;;;;;21.33;5.60;;;7.00;99.90;;;;;;5074151;28;20033;-68
2023/02/01 08:08:47;;;;;;;23.85;5.35;;;7.00;99.90;;;;;;5072387;28;20055;-68
2023/02/01 08:11:13;;;;;;;25.23;5.75;;;7.00;99.90;;;;;;5073994;28;20494;-68
2023/02/01 08:13:39;;;;;;;18.48;4.18;;;7.00;99.90;;;;;;5073925;28;20047;-68
2023/02/01 08:16:07;;;;;;;25.77;5.90;;;7.10;99.90;;;;;;5073901;28;20033;-67
2023/02/01 08:18:33;;;;;;;27.88;6.22;;;7.00;99.90;;;;;;5073966;28;20044;-68
2023/02/01 08:21:07;;;;;;;24.77;4.38;;;7.00;99.90;;;;;;5073992;28;20115;-68
2023/02/01 08:23:36;;;;;;;20.42;5.15;;;7.00;99.90;;;;;;5072128;28;20033;-67
2023/02/01 08:26:08;;;;;;;22.92;5.47;;;7.00;99.90;;;;;;5072978;28;20177;-68
2023/02/01 08:28:33;;;;;;;29.25;6.28;;;7.10;99.90;;;;;;5073498;28;20079;-68
2023/02/01 08:31:03;;;;;;;23.13;4.60;;;7.00;99.90;;;;;;5072608;28;20076;-68
2023/02/01 08:33:28;;;;;;;20.60;7.03;;;7.00;99.90;;;;;;5072566;28;20524;-67
2023/02/01 08:35:54;;;;;;;19.85;4.97;;;7.00;99.90;;;;;;5073970;28;20044;-68
2023/02/01 08:38:19;;;;;;;20.73;5.32;;;7.10;99.90;;;;;;5073507;28;20044;-68
2023/02/01 08:40:46;;;;;;;20.98;5.68;;;7.00;99.90;;;;;;5073627;28;20047;-68
2023/02/01 08:43:12;;;;;;;30.20;5.20;;;7.00;99.90;;;;;;5073507;28;20111;-68
2023/02/01 08:45:39;;;;;;;20.38;5.65;;;7.00;99.90;;;;;;5073919;28;20072;-69
2023/02/01 08:48:04;;;;;;;22.73;4.65;;;7.00;99.90;;;;;;5073348;28;20040;-67
2023/02/01 08:50:30;;;;;;;25.02;5.72;;;7.10;99.90;;;;;;5073541;28;20063;-67
2023/02/01 08:52:55;;;;;;;24.05;5.78;;;7.10;99.90;;;;;;5072073;28;20044;-68
2023/02/01 08:55:21;;;;;;;27.45;5.32;;;7.10;99.90;;;;;;5073562;28;20047;-67
2023/02/01 08:57:47;;;;;;;24.95;5.43;;;7.00;99.90;;;;;;5071806;28;20040;-68
2023/02/01 09:00:18;;;;;;;23.05;5.22;;;7.00;99.90;;;;;;5073593;28;20231;-68
2023/02/01 09:02:44;;;;;;;24.98;6.00;;;7.00;99.90;;;;;;5073327;28;20116;-68
2023/02/01 09:05:10;;;;;;;19.73;4.95;;;7.00;99.90;;;;;;5071742;28;20044;-68
2023/02/01 09:07:36;;;;;;;23.88;6.97;;;7.00;99.90;;;;;;5070345;28;20089;-68
2023/02/01 09:10:03;;;;;;;25.90;4.50;;;7.00;99.90;;;;;;5063570;28;20120;-68
2023/02/01 09:12:30;;;;;;;23.13;4.93;;;7.00;99.90;;;;;;5062287;28;20041;-68
2023/02/01 09:14:59;;;;;;;20.38;4.20;;;7.10;99.90;;;;;;5055548;28;20156;-68
2023/02/01 09:17:28;;;;;;;22.00;4.80;;;7.00;99.90;;;;;;5052557;28;20471;-68
2023/02/01 09:19:53;;;;;;;15.80;4.57;;;7.00;99.90;;;;;;5052649;28;20041;-68
2023/02/01 09:22:19;;;;;;;21.85;4.47;;;7.00;99.90;;;;;;5052363;28;20041;-68
2023/02/01 09:24:45;;;;;;;14.90;4.07;;;7.00;99.90;;;;;;5052520;28;20491;-68
2023/02/01 09:27:11;;;;;;;26.40;5.43;;;7.00;99.90;;;;;;5050925;28;20052;-68
2023/02/01 09:29:36;;;;;;;26.70;4.45;;;7.10;99.90;;;;;;5052543;28;20037;-68
2023/02/01 09:32:02;;;;;;;24.95;5.55;;;7.10;99.90;;;;;;5052614;28;20044;-68
2023/02/01 09:34:28;;;;;;;20.73;5.32;;;7.00;99.90;;;;;;5052581;28;20060;-68
2023/02/01 09:36:53;;;;;;;21.75;5.07;;;7.10;99.90;;;;;;5052055;28;20041;-68
2023/02/01 09:39:19;;;;;;;18.95;4.32;;;7.00;99.90;;;;;;5052298;28;20041;-68
2023/02/01 09:42:06;;;;;;;20.83;4.47;;;7.00;99.90;;;;;;5051991;28;20040;-68
2023/02/01 09:45:17;;;;;;;19.02;4.60;;;7.10;99.90;;;;;;5052423;28;20060;-68
2023/02/01 09:48:08;;;;;;;17.85;3.85;;;7.00;99.90;;;;;;5033719;28;20052;-68
2023/02/01 09:50:39;;;;;;;17.75;3.85;;;7.00;99.90;;;;;;5051948;28;20049;-69
2023/02/01 09:53:12;;;;;;;18.42;5.15;;;7.10;99.90;;;;;;5052149;28;20036;-67
2023/02/01 09:55:40;;;;;;;;;;;7.00;99.90;;;;;;5051291;28;20124;-69
2023/02/01 09:58:34;;;;;;;18.73;4.93;;;6.90;99.90;;;;;;5051619;28;20450;-68
2023/02/01 10:01:02;;;;;;;24.15;4.20;;;6.90;99.90;;;;;;5051290;28;20056;-68
2023/02/01 10:03:31;;;;;;;20.60;3.83;;;6.80;99.90;;;;;;5052051;28;20076;-68
2023/02/01 10:06:16;;;;;;;19.85;5.07;;;6.90;99.90;;;;;;5051901;28;20037;-68
2023/02/01 10:09:19;;;;;;;16.00;3.97;;;6.80;99.90;;;;;;5050321;28;20059;-69
2023/02/01 10:12:10;;;;;;;23.75;4.68;;;6.80;99.90;;;;;;5051785;28;20037;-68
2023/02/01 10:14:55;;;;;;;28.10;5.53;;;6.70;99.90;;;;;;5050617;28;20037;-68
2023/02/01 10:17:43;;;;;;;22.38;4.53;;;6.80;99.90;;;;;;5051689;28;20120;-68
2023/02/01 10:20:48;;;;;;;19.25;4.15;;;6.80;99.90;;;;;;5069121;28;20497;-67
2023/02/01 10:23:25;;;;;;;23.77;7.40;;;6.70;99.90;;;;;;5090063;22;20044;-73
2023/02/01 10:26:00;;;;;;;19.92;4.95;;;6.50;99.90;;;;;;5071666;28;20052;-74
2023/02/01 10:28:25;;;;;;;20.83;5.18;;;6.70;99.90;;;;;;5071511;28;20122;-73
2023/02/01 10:30:57;;;;;;;27.35;4.88;;;6.70;99.90;;;;;;5070289;28;20095;-73
2023/02/01 10:33:34;;;;;;;28.00;4.95;;;6.60;99.90;;;;;;5071474;28;20048;-73
2023/02/01 10:36:03;;;;;;;27.13;5.55;;;6.60;99.90;;;;;;5070783;28;20405;-74
2023/02/01 10:38:31;;;;;;;17.80;4.47;;;6.50;99.90;;;;;;5070449;28;20497;-73
2023/02/01 10:41:13;;;;;;;17.15;4.53;;;6.70;99.90;;;;;;5070699;28;20058;-74
2023/02/01 10:43:39;;;;;;;20.52;4.28;;;6.70;99.90;;;;;;5070264;28;20099;-73
2023/02/01 10:46:06;;;;;;;26.77;4.25;;;6.70;99.90;;;;;;5071590;28;20443;-73
2023/02/01 10:48:32;;;;;;;17.35;4.28;;;6.60;99.90;;;;;;5070104;28;20623;-74
2023/02/01 10:51:02;;;;;;;18.50;4.65;;;6.70;99.90;;;;;;5071592;28;20490;-74
2023/02/01 11:21:04;;;;;;;23.52;5.32;;;7.00;99.90;;;;;;5129163;27;20402;-73
2023/02/01 11:23:33;;;;;;;35.85;6.07;;;7.20;99.90;;;;;;5129997;27;20044;-72
2023/02/01 11:26:10;;;;;;;20.13;5.30;;;7.00;99.90;;;;;;5129834;27;20126;-73
2023/02/01 11:28:39;;;;;;;32.03;6.38;;;6.80;99.90;;;;;;5129635;27;20050;-72
2023/02/01 11:31:09;;;;;;;31.33;4.85;;;6.80;99.90;;;;;;5124854;27;20031;-72
2023/02/01 11:33:38;;;;;;;25.60;4.53;;;7.00;99.90;;;;;;5128584;28;20028;-72
2023/02/01 11:36:17;;;;;;;16.20;3.25;;;6.80;99.90;;;;;;5129797;27;20043;-73
2023/02/01 11:39:08;;;;;;;10.68;3.08;;;6.80;99.90;;;;;;5128327;28;20045;-74
2023/02/01 11:41:40;;;;;;;25.05;4.32;;;6.80;99.90;;;;;;5121504;28;20577;-73
2023/02/01 11:44:21;;;;;;;24.58;5.38;;;6.70;99.90;;;;;;5128220;28;20039;-73
2023/02/01 11:46:47;;;;;;;26.25;4.80;;;6.80;99.90;;;;;;5128433;28;20058;-73
2023/02/01 11:49:23;;;;;;;25.63;5.65;;;6.90;99.90;;;;;;5126000;27;20486;-72
2023/02/01 11:51:57;;;;;;;9.65;2.60;;;6.70;99.90;;;;;;5115573;27;20502;-72
2023/02/01 11:54:52;;;;;;;4.97;0.80;;;6.40;99.90;;;;;;5116826;28;20076;-72
2023/02/01 11:57:49;;;;;;;3.22;1.15;;;5.60;99.90;;;;;;5134034;27;20032;-72
2023/02/01 12:00:45;;;;;;;4.78;0.90;;;5.50;99.90;;;;;;5107067;28;20063;-72
2023/02/01 12:03:56;;;;;;;5.15;0.88;;;5.50;99.90;;;;;;5114004;28;20027;-72
2023/02/01 12:06:33;;;;;;;4.82;1.80;;;5.40;99.90;;;;;;5117432;28;20053;-72
2023/02/01 12:09:12;;;;;;;8.07;1.55;;;5.10;99.90;;;;;;5117949;28;20144;-72
2023/02/01 12:11:59;;;;;;;8.43;1.52;;;4.90;99.90;;;;;;5108493;28;20432;-72
2023/02/01 12:14:36;;;;;;;5.88;1.90;;;5.00;99.90;;;;;;5108328;28;20486;-74
2023/02/01 12:17:18;;;;;;;12.07;1.70;;;5.00;99.90;;;;;;5108256;28;20497;-73
2023/02/01 12:20:11;;;;;;;11.57;2.80;;;5.20;99.90;;;;;;5106389;28;20055;-72
2023/02/01 12:22:49;;;;;;;19.23;4.20;;;5.30;99.90;;;;;;5093259;28;20089;-74
2023/02/01 12:25:33;;;;;;;17.02;3.05;;;5.40;99.90;;;;;;5093537;28;20040;-73
2023/02/01 12:28:04;;;;;;;;;;;5.50;99.90;;;;;;5095014;28;20089;-73
2023/02/01 12:30:44;;;;;;;21.30;4.38;;;5.50;99.90;;;;;;5092391;28;19920;-73
2023/02/01 12:33:13;;;;;;;19.83;3.08;;;5.80;99.90;;;;;;5093462;28;20398;-73
2023/02/01 12:35:58;;;;;;;17.40;3.92;;;5.60;99.90;;;;;;5094321;28;20089;-73
2023/02/01 12:38:55;;;;;;;16.00;3.17;;;5.60;99.90;;;;;;5102244;28;20032;-73
2023/02/01 12:41:47;;;;;;;20.52;3.70;;;5.70;99.90;;;;;;5086477;28;20042;-73
2023/02/01 12:44:24;;;;;;;24.98;4.07;;;5.90;99.90;;;;;;5103054;28;20024;-75
2023/02/01 12:47:03;;;;;;;26.88;6.25;;;6.30;99.90;;;;;;5094164;28;20047;-74
2023/02/01 12:49:35;;;;;;;28.17;5.68;;;6.70;99.90;;;;;;5092294;28;20441;-74
2023/02/01 12:52:05;;;;;;;21.92;5.35;;;7.00;99.90;;;;;;5093070;28;20406;-75
2023/02/01 12:54:35;;;;;;;27.73;6.70;;;7.20;99.90;;;;;;5092678;28;20040;-75
2023/02/01 12:57:05;;;;;;;29.25;6.85;;;7.40;99.90;;;;;;5092589;28;20495;-75
2023/02/01 13:10:44;;;;;;;34.55;5.65;;;7.40;99.90;;;;;;5128935;27;20432;-74
2023/02/01 13:13:16;;;;;;;22.90;5.00;;;8.00;99.90;;;;;;5127853;28;20051;-74
2023/02/01 13:16:11;;;;;;;29.38;6.15;;;7.80;99.90;;;;;;5129061;27;20533;-74
2023/02/01 13:18:39;;;;;;;22.77;5.18;;;7.80;99.90;;;;;;5115045;27;20040;-74
2023/02/01 13:21:17;;;;;;;24.98;5.18;;;7.70;99.90;;;;;;5108964;28;20051;-75
2023/02/01 13:23:45;;;;;;;16.35;4.28;;;7.80;99.90;;;;;;5107501;28;20035;-74
2023/02/01 13:26:11;;;;;;;16.55;4.70;;;7.80;99.90;;;;;;5090495;28;20078;-75
2023/02/01 13:28:52;;;;;;;28.17;6.35;;;7.90;99.90;;;;;;5107315;28;20510;-75
2023/02/01 13:31:43;;;;;;;23.13;7.35;;;7.80;99.90;;;;;;5090718;28;20040;-75
2023/02/01 13:34:27;;;;;;;22.20;5.05;;;7.80;99.90;;;;;;5090284;28;20043;-74
2023/02/01 13:37:20;;;;;;;32.17;6.10;;;7.90;99.90;;;;;;5108854;28;20044;-74
2023/02/01 13:40:14;;;;;;;24.55;5.30;;;7.90;99.90;;;;;;5089680;28;20055;-74
2023/02/01 13:42:56;;;;;;;22.33;5.60;;;7.80;99.90;;;;;;5117074;28;20039;-74
2023/02/01 13:45:28;;;;;;;19.10;4.45;;;7.90;99.90;;;;;;5124558;28;20039;-74
2023/02/01 13:47:58;;;;;;;34.97;5.88;;;8.00;99.90;;;;;;5110227;28;20035;-75
2023/02/01 13:50:25;;;;;;;24.83;5.55;;;8.00;99.90;;;;;;5126974;27;20050;-74
2023/02/01 13:53:11;;;;;;;23.40;5.35;;;8.00;99.90;;;;;;5127410;28;20039;-74
2023/02/01 13:55:43;;;;;;;20.60;4.60;;;8.00;99.90;;;;;;5128784;27;20043;-74
2023/02/01 13:58:22;;;;;;;31.67;5.35;;;7.90;99.90;;;;;;5121755;27;20032;-74
2023/02/01 14:00:52;;;;;;;25.27;5.47;;;7.90;99.90;;;;;;5107008;28;20050;-74
2023/02/01 14:03:41;;;;;;;24.63;5.82;;;7.90;99.90;;;;;;5107082;28;20410;-73
2023/02/01 14:06:27;;;;;;;16.95;5.07;;;7.80;99.90;;;;;;5107080;28;20042;-74
2023/02/01 14:09:08;;;;;;;25.52;5.55;;;7.90;99.90;;;;;;5109288;28;20054;-73
2023/02/01 14:11:51;;;;;;;27.05;5.10;;;7.90;99.90;;;;;;5092824;28;20048;-74
2023/02/01 14:14:17;;;;;;;20.02;4.30;;;8.00;99.90;;;;;;5093522;28;20398;-74
2023/02/01 14:17:03;;;;;;;27.52;5.88;;;8.00;99.90;;;;;;5093265;28;20051;-74